Time;durP1;ratioP1;P1;durP2;ratioP2;P2;SDS_P1;SDS_P2;PMS_P1;PMS_P2;Temp;Humidity;BMP_temperature;BMP_pressure;BME280_temperature;BME280_humidity;BME280_pressure;Samples;Min_cycle;Max_cycle;Signal;HPM_P1;HPM_P2
2024/01/03 00:01:29;;;;;;;0.90;0.70;;;20.80;57.60;;;;;;5112930;28;20864;-68
2024/01/03 00:03:55;;;;;;;1.20;0.60;;;20.70;57.60;;;;;;5113123;28;20917;-69
2024/01/03 00:06:21;;;;;;;1.00;0.60;;;20.80;57.60;;;;;;5113048;28;20410;-68
2024/01/03 00:08:46;;;;;;;1.00;0.67;;;20.80;57.60;;;;;;5112644;28;20247;-68
2024/01/03 00:11:19;;;;;;;0.80;0.60;;;20.80;57.60;;;;;;5094307;28;20177;-68
2024/01/03 00:13:48;;;;;;;0.87;0.63;;;20.80;57.60;;;;;;5112670;28;20157;-67
2024/01/03 00:16:21;;;;;;;1.40;0.70;;;20.80;57.70;;;;;;5112474;28;20518;-68
2024/01/03 00:18:49;;;;;;;0.87;0.67;;;20.70;57.60;;;;;;5112515;28;21004;-68
2024/01/03 00:21:25;;;;;;;0.90;0.60;;;20.70;57.60;;;;;;5112556;28;20403;-68
2024/01/03 00:23:55;;;;;;;1.00;0.60;;;20.80;57.70;;;;;;5112848;28;20382;-68
2024/01/03 00:26:22;;;;;;;0.90;0.60;;;20.70;57.60;;;;;;5112620;28;20746;-68
2024/01/03 00:28:48;;;;;;;1.20;0.67;;;20.80;57.70;;;;;;5112285;28;20442;-68
2024/01/03 00:31:32;;;;;;;1.00;0.60;;;20.70;57.60;;;;;;5112358;28;20411;-67
2024/01/03 00:33:57;;;;;;;0.80;0.60;;;20.70;57.60;;;;;;5112277;28;20161;-68
2024/01/03 00:36:23;;;;;;;0.80;0.50;;;20.70;57.60;;;;;;5112315;28;20607;-67
2024/01/03 00:38:49;;;;;;;0.90;0.60;;;20.70;57.60;;;;;;5111996;28;20287;-67
2024/01/03 00:41:14;;;;;;;0.90;0.60;;;20.70;57.60;;;;;;5112246;28;20411;-68
2024/01/03 00:43:40;;;;;;;0.90;0.67;;;20.70;57.70;;;;;;5093751;28;20519;-68
2024/01/03 00:46:07;;;;;;;0.80;0.60;;;20.70;57.60;;;;;;5110989;28;20591;-68
2024/01/03 00:48:34;;;;;;;1.00;0.70;;;20.70;57.60;;;;;;5111889;28;20518;-68
2024/01/03 00:51:00;;;;;;;1.30;0.60;;;20.70;57.60;;;;;;5112191;28;20422;-68
2024/01/03 00:53:26;;;;;;;1.20;0.80;;;20.70;57.60;;;;;;5111913;28;20913;-68
2024/01/03 00:55:52;;;;;;;1.00;0.70;;;20.70;57.60;;;;;;5093455;28;20457;-68
2024/01/03 00:58:19;;;;;;;0.93;0.83;;;20.70;57.60;;;;;;5111649;28;20200;-68
2024/01/03 01:00:45;;;;;;;1.10;0.80;;;20.70;57.60;;;;;;5111714;28;20414;-68
2024/01/03 01:03:11;;;;;;;1.17;0.70;;;20.70;57.60;;;;;;5111721;28;20514;-68
2024/01/03 01:05:37;;;;;;;0.80;0.60;;;20.70;57.60;;;;;;5111682;28;21025;-68
2024/01/03 01:08:03;;;;;;;1.20;0.80;;;20.70;57.60;;;;;;5111562;28;20465;-67
2024/01/03 01:10:29;;;;;;;0.90;0.60;;;20.70;57.60;;;;;;5111556;28;20181;-68
2024/01/03 01:12:56;;;;;;;1.30;0.67;;;20.70;57.60;;;;;;5111425;28;21035;-67
2024/01/03 01:15:22;;;;;;;0.93;0.70;;;20.70;57.60;;;;;;5111417;28;20263;-68
2024/01/03 01:17:47;;;;;;;1.00;0.70;;;20.70;57.60;;;;;;5111148;28;20660;-68
2024/01/03 01:20:13;;;;;;;1.53;1.10;;;20.70;57.60;;;;;;5111351;28;20172;-68
2024/01/03 01:22:39;;;;;;;1.10;0.70;;;20.70;57.60;;;;;;5111379;28;20648;-69
2024/01/03 01:25:05;;;;;;;0.90;0.73;;;20.70;57.60;;;;;;5111193;28;20169;-67
2024/01/03 01:27:30;;;;;;;1.00;0.60;;;20.70;57.60;;;;;;5111143;28;20600;-68
2024/01/03 01:29:56;;;;;;;1.97;0.77;;;20.70;57.70;;;;;;5111175;28;20537;-68
2024/01/03 01:32:21;;;;;;;1.00;0.60;;;20.70;57.60;;;;;;5111145;28;20180;-68
2024/01/03 01:34:47;;;;;;;0.90;0.60;;;20.70;57.60;;;;;;5111008;28;20181;-68
2024/01/03 01:37:13;;;;;;;1.70;0.70;;;20.70;57.60;;;;;;5110858;28;20181;-68
2024/01/03 01:39:38;;;;;;;1.00;0.70;;;20.60;57.60;;;;;;5111035;28;20176;-68
2024/01/03 01:42:04;;;;;;;1.07;0.70;;;20.70;57.60;;;;;;5110954;28;20219;-69
2024/01/03 01:44:30;;;;;;;2.20;0.70;;;20.60;57.60;;;;;;5111181;28;20168;-68
2024/01/03 01:46:56;;;;;;;1.13;0.63;;;20.60;57.50;;;;;;5110867;28;20196;-68
2024/01/03 01:49:22;;;;;;;1.03;0.70;;;20.60;57.50;;;;;;5110759;28;20196;-68
2024/01/03 01:51:48;;;;;;;1.10;0.60;;;20.70;57.60;;;;;;5110752;28;20434;-68
2024/01/03 01:54:14;;;;;;;1.30;0.67;;;20.60;57.50;;;;;;5110658;28;20856;-68
2024/01/03 01:56:41;;;;;;;1.00;0.70;;;20.70;57.60;;;;;;5110324;28;20169;-68
2024/01/03 01:59:07;;;;;;;0.90;0.70;;;20.70;57.70;;;;;;5110521;28;20829;-67
2024/01/03 02:01:34;;;;;;;1.03;0.90;;;20.60;57.50;;;;;;5110688;28;20446;-67
2024/01/03 02:04:05;;;;;;;1.20;0.70;;;20.70;57.60;;;;;;5110640;28;20452;-68
2024/01/03 02:06:31;;;;;;;1.00;0.73;;;20.60;57.50;;;;;;5110519;28;20395;-66
2024/01/03 02:08:56;;;;;;;0.90;0.70;;;20.60;57.50;;;;;;5110479;28;20466;-68
2024/01/03 02:11:22;;;;;;;1.10;0.80;;;20.60;57.60;;;;;;5092158;28;20887;-68
2024/01/03 02:13:47;;;;;;;0.90;0.70;;;20.60;57.50;;;;;;5110524;28;20222;-68
2024/01/03 02:16:13;;;;;;;0.97;0.70;;;20.60;57.60;;;;;;5092066;28;20189;-67
2024/01/03 02:18:41;;;;;;;1.00;0.60;;;20.60;57.60;;;;;;5110591;28;20256;-68
2024/01/03 02:21:17;;;;;;;0.80;0.63;;;20.60;57.60;;;;;;5110499;28;20413;-68
2024/01/03 02:23:43;;;;;;;0.90;0.70;;;20.60;57.60;;;;;;5110270;28;20442;-67
2024/01/03 02:26:09;;;;;;;1.20;0.73;;;20.60;57.60;;;;;;5110403;28;20415;-68
2024/01/03 02:28:35;;;;;;;0.80;0.60;;;20.60;57.60;;;;;;5110227;28;20422;-68
2024/01/03 02:31:00;;;;;;;1.50;0.67;;;20.60;57.60;;;;;;5110542;28;20450;-67
2024/01/03 02:33:26;;;;;;;1.00;0.60;;;20.60;57.60;;;;;;5110505;28;20423;-68
2024/01/03 02:35:52;;;;;;;0.90;0.70;;;20.60;57.60;;;;;;5110300;28;20181;-68
2024/01/03 02:38:18;;;;;;;0.97;0.70;;;20.60;57.60;;;;;;5110156;28;20204;-68
2024/01/03 02:40:44;;;;;;;1.10;0.80;;;20.60;57.60;;;;;;5110124;28;20173;-68
2024/01/03 02:43:10;;;;;;;0.80;0.70;;;20.60;57.60;;;;;;5110214;28;20654;-68
2024/01/03 02:45:36;;;;;;;1.20;0.80;;;20.60;57.60;;;;;;5110229;28;20964;-67
2024/01/03 02:48:02;;;;;;;1.10;0.60;;;20.60;57.60;;;;;;5110062;28;20488;-68
2024/01/03 02:50:28;;;;;;;1.00;0.60;;;20.60;57.60;;;;;;5110060;28;20181;-67
2024/01/03 02:52:53;;;;;;;0.80;0.60;;;20.60;57.60;;;;;;5110155;28;20502;-68
2024/01/03 02:55:19;;;;;;;0.97;0.70;;;20.60;57.60;;;;;;5110129;28;20256;-67
2024/01/03 02:57:44;;;;;;;0.90;0.70;;;20.60;57.60;;;;;;5109986;28;21028;-68
2024/01/03 03:00:11;;;;;;;0.80;0.60;;;20.60;57.60;;;;;;5110251;28;20546;-67
2024/01/03 03:02:36;;;;;;;1.23;0.90;;;20.60;57.60;;;;;;5110023;28;20176;-67
2024/01/03 03:05:02;;;;;;;0.93;0.60;;;20.60;57.60;;;;;;5110231;28;20410;-68
2024/01/03 03:07:28;;;;;;;1.10;0.60;;;20.60;57.60;;;;;;5109834;28;20196;-68
2024/01/03 03:09:53;;;;;;;1.00;0.70;;;20.60;57.60;;;;;;5094072;28;20204;-68
2024/01/03 03:12:19;;;;;;;1.30;1.03;;;20.60;57.60;;;;;;5113742;28;20177;-68
2024/01/03 03:14:44;;;;;;;1.30;0.80;;;20.60;57.60;;;;;;5113744;28;20181;-67
2024/01/03 03:17:10;;;;;;;1.20;0.67;;;20.60;57.60;;;;;;5113306;28;20199;-68
2024/01/03 03:19:35;;;;;;;1.00;0.80;;;20.60;57.60;;;;;;5113731;28;20224;-68
2024/01/03 03:22:01;;;;;;;0.90;0.70;;;20.60;57.60;;;;;;5113583;28;20271;-68
2024/01/03 03:24:27;;;;;;;0.90;0.70;;;20.60;57.60;;;;;;5113662;28;20173;-68
2024/01/03 03:26:53;;;;;;;0.90;0.60;;;20.60;57.60;;;;;;5113453;28;20522;-68
2024/01/03 03:29:19;;;;;;;0.90;0.70;;;20.60;57.60;;;;;;5113302;28;20284;-67
2024/01/03 03:31:44;;;;;;;0.90;0.70;;;20.60;57.60;;;;;;5113738;28;20564;-68
2024/01/03 03:34:10;;;;;;;1.90;0.97;;;20.60;57.60;;;;;;5113343;28;20177;-68
2024/01/03 03:36:36;;;;;;;1.37;0.90;;;20.60;57.60;;;;;;5113400;28;20181;-68
2024/01/03 03:39:01;;;;;;;2.37;0.67;;;20.60;57.60;;;;;;5113079;28;20205;-68
2024/01/03 03:41:27;;;;;;;0.80;0.60;;;20.60;57.60;;;;;;5113310;28;20835;-68
2024/01/03 03:43:53;;;;;;;1.00;0.70;;;20.60;57.60;;;;;;5113194;28;20175;-67
2024/01/03 03:46:18;;;;;;;1.10;0.60;;;20.60;57.60;;;;;;5113423;28;20177;-68
2024/01/03 03:48:44;;;;;;;1.07;0.70;;;20.60;57.60;;;;;;5113040;28;20215;-68
2024/01/03 03:51:10;;;;;;;1.30;0.70;;;20.60;57.60;;;;;;5113051;28;20200;-68
2024/01/03 03:53:36;;;;;;;0.90;0.60;;;20.60;57.60;;;;;;5113066;28;20445;-68
2024/01/03 03:56:01;;;;;;;1.00;0.80;;;20.60;57.60;;;;;;5112888;28;20669;-68
2024/01/03 03:58:27;;;;;;;0.80;0.60;;;20.50;57.50;;;;;;5112793;28;20208;-68
2024/01/03 04:00:52;;;;;;;0.90;0.70;;;20.60;57.60;;;;;;5112908;28;20581;-67
2024/01/03 04:03:18;;;;;;;1.00;0.60;;;20.60;57.60;;;;;;5112561;28;20267;-67
2024/01/03 04:05:44;;;;;;;0.80;0.60;;;20.60;57.60;;;;;;5112804;28;20593;-68
2024/01/03 04:08:09;;;;;;;0.90;0.63;;;20.60;57.60;;;;;;5112692;28;20232;-68
2024/01/03 04:10:35;;;;;;;0.80;0.60;;;20.50;57.50;;;;;;5112780;28;20267;-68
2024/01/03 04:13:01;;;;;;;1.10;0.70;;;20.60;57.60;;;;;;5112659;28;20641;-68
2024/01/03 04:15:26;;;;;;;3.40;0.70;;;20.60;57.60;;;;;;5112616;28;20200;-68
2024/01/03 04:17:52;;;;;;;2.50;0.70;;;20.60;57.60;;;;;;5112339;28;20216;-68
2024/01/03 04:20:18;;;;;;;1.40;0.70;;;20.50;57.60;;;;;;5112397;28;20879;-69
2024/01/03 04:22:45;;;;;;;0.97;0.70;;;20.50;57.50;;;;;;5112427;28;20179;-68
2024/01/03 04:25:11;;;;;;;1.00;0.60;;;20.60;57.60;;;;;;5112388;28;20208;-68
2024/01/03 04:27:37;;;;;;;0.90;0.60;;;20.60;57.60;;;;;;5112305;28;20430;-68
2024/01/03 04:30:04;;;;;;;0.90;0.70;;;20.50;58.10;;;;;;5112339;28;20907;-67
2024/01/03 04:32:30;;;;;;;1.00;0.60;;;20.50;57.50;;;;;;5111425;28;20733;-68
2024/01/03 04:34:56;;;;;;;1.30;1.17;;;20.50;57.60;;;;;;5112297;28;20781;-67
2024/01/03 04:37:22;;;;;;;0.90;0.70;;;20.50;57.50;;;;;;5112022;28;20445;-68
2024/01/03 04:39:47;;;;;;;1.13;0.70;;;20.50;57.50;;;;;;5112129;28;20180;-68
2024/01/03 04:42:13;;;;;;;1.10;0.60;;;20.50;57.50;;;;;;5112046;28;20196;-68
2024/01/03 04:44:40;;;;;;;1.63;0.60;;;20.50;57.50;;;;;;5093658;28;20184;-68
2024/01/03 04:47:06;;;;;;;1.07;0.97;;;20.50;57.50;;;;;;5093829;28;20185;-68
2024/01/03 04:49:31;;;;;;;1.00;0.70;;;20.50;57.50;;;;;;5111789;28;20913;-69
2024/01/03 04:51:57;;;;;;;1.00;0.60;;;20.50;57.50;;;;;;5111943;28;20192;-68
2024/01/03 04:54:22;;;;;;;1.33;0.60;;;20.50;57.50;;;;;;5111796;28;20215;-65
2024/01/03 04:56:48;;;;;;;1.40;0.90;;;20.50;57.50;;;;;;5112041;28;20180;-68
2024/01/03 04:59:14;;;;;;;0.80;0.50;;;20.50;57.50;;;;;;5111619;28;20207;-68
2024/01/03 05:01:41;;;;;;;0.80;0.60;;;20.50;57.50;;;;;;5111710;28;20174;-68
2024/01/03 05:04:07;;;;;;;1.00;0.70;;;20.50;57.50;;;;;;5093316;28;20569;-68
2024/01/03 05:06:35;;;;;;;0.87;0.63;;;20.50;57.50;;;;;;5111706;28;20410;-68
2024/01/03 05:09:01;;;;;;;1.07;0.67;;;20.50;57.50;;;;;;5111494;28;20465;-67
2024/01/03 05:11:26;;;;;;;0.90;0.60;;;20.50;57.50;;;;;;5111504;28;20523;-68
2024/01/03 05:13:52;;;;;;;0.80;0.70;;;20.60;57.60;;;;;;5111537;28;20168;-68
2024/01/03 05:16:18;;;;;;;1.10;0.70;;;20.50;57.50;;;;;;5111464;28;20196;-67
2024/01/03 05:18:43;;;;;;;1.00;0.70;;;20.50;58.10;;;;;;5111286;28;20208;-68
2024/01/03 05:21:09;;;;;;;0.87;0.60;;;20.50;57.50;;;;;;5111395;28;20295;-68
2024/01/03 05:23:34;;;;;;;0.90;0.60;;;20.60;57.60;;;;;;5111304;28;20177;-68
2024/01/03 05:26:00;;;;;;;1.20;0.90;;;20.50;57.50;;;;;;5111242;28;20172;-68
2024/01/03 05:28:26;;;;;;;1.10;0.70;;;20.60;57.50;;;;;;5111127;28;20185;-68
2024/01/03 05:30:51;;;;;;;0.97;0.70;;;20.60;57.50;;;;;;5111182;28;20177;-68
2024/01/03 05:33:17;;;;;;;0.87;0.60;;;20.60;57.60;;;;;;5110582;28;20275;-68
2024/01/03 05:35:42;;;;;;;1.40;0.70;;;20.60;57.60;;;;;;5111046;28;20177;-68
2024/01/03 05:38:08;;;;;;;0.90;0.60;;;20.60;57.50;;;;;;5110947;28;20282;-68
2024/01/03 05:40:34;;;;;;;1.10;0.80;;;20.60;57.50;;;;;;5110989;28;20165;-68
2024/01/03 05:42:59;;;;;;;1.10;0.80;;;20.50;57.50;;;;;;5110955;28;20415;-68
2024/01/03 05:45:25;;;;;;;1.10;0.77;;;20.60;57.50;;;;;;5110919;28;20173;-68
2024/01/03 05:47:51;;;;;;;0.80;0.57;;;20.50;57.50;;;;;;5110872;28;20197;-68
2024/01/03 05:50:17;;;;;;;0.87;0.60;;;20.60;57.50;;;;;;5092551;28;20287;-68
2024/01/03 05:52:43;;;;;;;0.90;0.63;;;20.60;57.50;;;;;;5110836;28;20175;-68
2024/01/03 05:55:08;;;;;;;1.10;0.70;;;20.50;57.50;;;;;;5110788;28;20415;-68
2024/01/03 05:57:34;;;;;;;1.30;0.73;;;20.50;57.50;;;;;;5110565;28;20687;-68
2024/01/03 06:00:00;;;;;;;0.80;0.60;;;20.50;57.50;;;;;;5110724;28;20312;-67
2024/01/03 06:02:26;;;;;;;0.80;0.60;;;20.60;57.50;;;;;;5110701;28;20180;-67
2024/01/03 06:04:51;;;;;;;1.10;0.63;;;20.50;57.50;;;;;;5110754;28;20486;-68
2024/01/03 06:07:17;;;;;;;0.87;0.70;;;20.50;57.50;;;;;;5110681;28;20179;-68
2024/01/03 06:09:43;;;;;;;2.70;0.97;;;20.50;57.50;;;;;;5110947;28;20711;-68
2024/01/03 06:12:08;;;;;;;1.07;0.60;;;20.60;57.50;;;;;;5110654;28;20173;-69
2024/01/03 06:14:34;;;;;;;2.13;0.70;;;20.50;57.40;;;;;;5110704;28;20476;-68
2024/01/03 06:16:59;;;;;;;1.00;0.70;;;20.60;57.50;;;;;;5110487;28;20203;-68
2024/01/03 06:19:25;;;;;;;1.00;0.80;;;20.60;57.50;;;;;;5110486;28;20626;-68
2024/01/03 06:21:51;;;;;;;1.27;0.70;;;20.60;57.50;;;;;;5092452;28;20181;-68
2024/01/03 06:24:16;;;;;;;0.90;0.60;;;20.60;57.50;;;;;;5110499;28;20204;-68
2024/01/03 06:26:42;;;;;;;1.13;0.60;;;20.60;57.50;;;;;;5110493;28;20184;-69
2024/01/03 06:29:08;;;;;;;0.90;0.60;;;20.60;57.50;;;;;;5110363;28;20193;-66
2024/01/03 06:31:34;;;;;;;1.67;0.70;;;20.60;57.60;;;;;;5110475;28;20189;-68
2024/01/03 06:33:59;;;;;;;0.80;0.60;;;20.60;57.50;;;;;;5110414;28;20417;-68
2024/01/03 06:36:25;;;;;;;0.80;0.50;;;20.60;57.50;;;;;;5110708;28;20657;-68
2024/01/03 06:38:51;;;;;;;1.87;0.60;;;20.60;57.50;;;;;;5110443;28;20205;-68
2024/01/03 06:41:17;;;;;;;0.80;0.60;;;20.60;57.50;;;;;;5110385;28;20250;-68
2024/01/03 06:43:44;;;;;;;1.10;0.60;;;20.60;57.50;;;;;;5110750;28;20169;-68
2024/01/03 06:46:09;;;;;;;0.80;0.60;;;20.70;57.60;;;;;;5114500;28;20475;-67
2024/01/03 06:48:35;;;;;;;1.13;0.70;;;20.70;57.60;;;;;;5114343;28;20466;-68
2024/01/03 06:51:02;;;;;;;0.80;0.60;;;20.70;57.60;;;;;;5096083;28;20639;-67
2024/01/03 06:53:29;;;;;;;0.90;0.60;;;20.70;57.60;;;;;;5114310;28;20169;-68
2024/01/03 06:55:55;;;;;;;0.80;0.60;;;20.70;57.60;;;;;;5114304;28;20419;-68
2024/01/03 06:58:21;;;;;;;0.90;0.60;;;20.70;57.60;;;;;;5114325;28;20458;-68
2024/01/03 07:00:46;;;;;;;1.57;0.70;;;20.70;57.50;;;;;;5114110;28;20421;-67
2024/01/03 07:03:12;;;;;;;1.00;0.60;;;20.80;57.60;;;;;;5114179;28;20260;-68
2024/01/03 07:05:39;;;;;;;0.80;0.60;;;20.80;57.60;;;;;;5114107;28;20165;-67
2024/01/03 07:08:05;;;;;;;0.90;0.60;;;20.80;57.50;;;;;;5113935;28;20674;-66
2024/01/03 07:10:31;;;;;;;1.10;0.70;;;20.80;57.50;;;;;;5114257;28;20428;-68
2024/01/03 07:12:58;;;;;;;1.63;0.60;;;20.80;57.50;;;;;;5113951;28;20871;-67
2024/01/03 07:15:25;;;;;;;0.80;0.60;;;20.80;57.50;;;;;;5113763;28;21095;-68
2024/01/03 07:17:51;;;;;;;0.90;0.60;;;20.80;57.50;;;;;;5113663;28;20466;-68
2024/01/03 07:20:16;;;;;;;1.07;0.60;;;20.80;57.50;;;;;;5113734;28;20426;-68
2024/01/03 07:22:42;;;;;;;1.00;0.60;;;20.80;57.50;;;;;;5113752;28;20677;-67
2024/01/03 07:25:08;;;;;;;1.17;0.70;;;20.80;57.50;;;;;;5113661;28;20216;-68
2024/01/03 07:27:33;;;;;;;0.80;0.60;;;20.80;57.40;;;;;;5113682;28;20200;-66
2024/01/03 07:29:59;;;;;;;1.00;0.70;;;20.80;57.40;;;;;;5113605;28;20176;-68
2024/01/03 07:32:24;;;;;;;1.00;0.70;;;20.90;57.50;;;;;;5113504;28;20644;-66
2024/01/03 07:34:50;;;;;;;0.80;0.60;;;20.80;57.40;;;;;;5113463;28;20176;-69
2024/01/03 07:37:15;;;;;;;1.10;0.80;;;20.80;57.50;;;;;;5113348;28;20259;-67
2024/01/03 07:39:41;;;;;;;1.10;0.67;;;20.80;57.40;;;;;;5113311;28;20465;-68
2024/01/03 07:42:07;;;;;;;1.40;0.87;;;20.90;57.50;;;;;;5113335;28;20223;-68
2024/01/03 07:44:35;;;;;;;1.20;0.70;;;20.80;57.40;;;;;;5113313;28;20169;-68
2024/01/03 07:47:01;;;;;;;1.57;0.90;;;20.80;57.40;;;;;;5113151;28;20197;-68
2024/01/03 07:49:27;;;;;;;1.40;0.70;;;20.80;57.40;;;;;;5113166;28;20454;-68
2024/01/03 07:51:52;;;;;;;4.37;1.03;;;20.80;57.40;;;;;;5113146;28;20177;-68
2024/01/03 07:54:18;;;;;;;0.97;0.70;;;20.80;57.40;;;;;;5112778;28;20173;-68
2024/01/03 07:56:43;;;;;;;2.07;0.90;;;20.80;57.40;;;;;;5112786;28;20173;-69
2024/01/03 07:59:09;;;;;;;2.80;1.13;;;20.80;57.40;;;;;;5113180;28;20704;-68
2024/01/03 08:01:35;;;;;;;1.90;0.70;;;20.80;57.40;;;;;;5112922;28;20165;-68
2024/01/03 08:04:01;;;;;;;1.10;0.70;;;20.80;57.40;;;;;;5112946;28;20640;-68
2024/01/03 08:06:27;;;;;;;2.13;1.00;;;20.90;57.40;;;;;;5113034;28;20173;-68
2024/01/03 08:08:52;;;;;;;1.77;0.83;;;20.90;57.50;;;;;;5112809;28;20438;-67
2024/01/03 08:11:18;;;;;;;2.00;0.70;;;20.90;57.50;;;;;;5112653;28;20177;-68
2024/01/03 08:13:44;;;;;;;1.77;0.80;;;20.90;57.50;;;;;;5112450;28;20180;-66
2024/01/03 08:16:11;;;;;;;1.90;1.00;;;20.80;57.40;;;;;;5112656;28;20216;-67
2024/01/03 08:18:36;;;;;;;2.73;0.80;;;20.90;57.50;;;;;;5117119;27;20955;-68
2024/01/03 08:21:03;;;;;;;1.00;0.70;;;20.90;57.50;;;;;;5133096;27;20413;-68
2024/01/03 08:23:31;;;;;;;1.10;0.80;;;20.90;57.40;;;;;;5133430;27;20168;-68
2024/01/03 08:25:56;;;;;;;2.10;0.97;;;20.90;57.50;;;;;;5132955;27;20408;-69
2024/01/03 08:28:22;;;;;;;1.73;0.80;;;20.90;57.40;;;;;;5133091;27;20959;-68
2024/01/03 08:30:48;;;;;;;0.80;0.60;;;20.90;57.50;;;;;;5132868;27;20184;-67
2024/01/03 08:33:14;;;;;;;1.10;0.70;;;20.90;57.40;;;;;;5131998;27;20164;-68
2024/01/03 08:35:39;;;;;;;2.57;1.20;;;20.90;57.40;;;;;;5132439;27;20544;-68
2024/01/03 08:38:05;;;;;;;1.23;0.70;;;20.90;57.50;;;;;;5132589;27;20204;-68
2024/01/03 08:40:30;;;;;;;1.23;0.80;;;20.90;57.40;;;;;;5132834;27;20203;-68
2024/01/03 08:42:56;;;;;;;1.73;0.70;;;20.90;58.00;;;;;;5132582;27;20172;-67
2024/01/03 08:45:22;;;;;;;1.20;0.70;;;20.90;57.40;;;;;;5132529;27;20251;-68
2024/01/03 08:47:48;;;;;;;1.40;0.90;;;20.90;57.50;;;;;;5132530;27;20658;-68
2024/01/03 08:50:13;;;;;;;1.20;0.87;;;20.90;57.50;;;;;;5132326;27;20458;-68
2024/01/03 08:52:39;;;;;;;1.67;0.90;;;20.90;57.50;;;;;;5132431;27;20177;-68
2024/01/03 08:55:05;;;;;;;0.90;0.60;;;20.90;57.50;;;;;;5132293;27;20251;-68
2024/01/03 08:57:31;;;;;;;2.00;0.83;;;20.90;57.50;;;;;;5132118;27;20195;-67
2024/01/03 08:59:57;;;;;;;1.80;0.70;;;20.90;57.50;;;;;;5113757;27;20657;-68
2024/01/03 09:02:23;;;;;;;2.43;1.00;;;20.90;57.50;;;;;;5132221;27;20493;-68
2024/01/03 09:04:49;;;;;;;2.07;0.83;;;20.90;57.50;;;;;;5132116;27;20169;-68
2024/01/03 09:07:15;;;;;;;1.50;0.80;;;20.90;57.50;;;;;;5131145;27;20176;-68
2024/01/03 09:09:41;;;;;;;1.83;0.90;;;20.90;57.50;;;;;;5132019;27;20493;-68
2024/01/03 09:12:07;;;;;;;1.13;0.60;;;20.90;57.50;;;;;;5132056;27;20194;-67
2024/01/03 09:14:32;;;;;;;1.27;0.90;;;20.90;57.50;;;;;;5132030;27;20183;-68
2024/01/03 09:16:58;;;;;;;2.33;1.10;;;20.90;57.50;;;;;;5131802;27;20233;-68
2024/01/03 09:19:24;;;;;;;0.90;0.60;;;20.90;57.50;;;;;;5131992;27;20686;-68
2024/01/03 09:21:50;;;;;;;2.37;1.10;;;20.90;57.50;;;;;;5131847;27;20477;-68
2024/01/03 09:24:18;;;;;;;1.50;0.80;;;20.90;57.50;;;;;;5132010;27;20176;-67
2024/01/03 09:26:44;;;;;;;1.43;0.80;;;20.90;57.50;;;;;;5131737;27;20635;-67
2024/01/03 09:29:09;;;;;;;2.03;0.90;;;20.90;57.50;;;;;;5131528;27;20469;-68
2024/01/03 09:31:44;;;;;;;1.23;0.90;;;20.90;57.50;;;;;;5131641;27;20180;-68
2024/01/03 09:34:09;;;;;;;1.40;0.80;;;20.90;57.50;;;;;;5131850;27;20160;-67
2024/01/03 09:36:35;;;;;;;1.97;0.90;;;20.90;57.50;;;;;;5131371;27;20421;-67
2024/01/03 09:39:00;;;;;;;2.13;1.00;;;20.90;57.40;;;;;;5131476;27;20204;-68
2024/01/03 09:41:26;;;;;;;2.17;1.10;;;20.90;57.40;;;;;;5131450;27;20168;-68
2024/01/03 09:43:53;;;;;;;1.30;0.70;;;20.90;57.40;;;;;;5131481;27;20164;-69
2024/01/03 09:46:20;;;;;;;1.43;0.90;;;20.90;57.40;;;;;;5131357;27;20164;-68
2024/01/03 09:48:47;;;;;;;1.77;0.90;;;20.90;57.40;;;;;;5131391;27;20436;-68
2024/01/03 09:51:13;;;;;;;1.90;1.07;;;20.90;57.40;;;;;;5096055;27;20432;-67
2024/01/03 09:53:40;;;;;;;1.50;0.80;;;20.90;57.40;;;;;;5111498;27;20413;-69
2024/01/03 09:56:06;;;;;;;2.50;0.90;;;20.90;57.40;;;;;;5131348;27;20178;-68
2024/01/03 09:58:33;;;;;;;2.10;1.00;;;20.90;57.40;;;;;;5131105;27;21187;-68
2024/01/03 10:00:59;;;;;;;1.60;1.03;;;20.90;57.40;;;;;;5131390;27;20540;-68
2024/01/03 10:03:24;;;;;;;2.23;0.87;;;20.90;57.40;;;;;;5131037;27;20410;-68
2024/01/03 10:06:11;;;;;;;11.87;1.30;;;20.90;57.40;;;;;;5131024;27;20183;-68
2024/01/03 10:08:37;;;;;;;1.77;0.80;;;20.90;57.30;;;;;;5131124;27;20691;-68
2024/01/03 10:11:18;;;;;;;2.73;1.20;;;20.90;57.40;;;;;;5112546;27;20428;-68
2024/01/03 10:13:44;;;;;;;2.23;1.07;;;20.90;57.40;;;;;;5131119;27;20153;-68
2024/01/03 10:16:11;;;;;;;1.27;0.87;;;20.90;57.40;;;;;;5130929;27;20424;-67
2024/01/03 10:18:36;;;;;;;3.80;1.43;;;20.90;57.40;;;;;;5130903;27;20208;-68
2024/01/03 10:21:12;;;;;;;2.50;1.00;;;20.90;57.40;;;;;;5130832;28;20410;-68
2024/01/03 10:23:38;;;;;;;2.33;0.80;;;20.90;57.40;;;;;;5131031;28;20159;-68
2024/01/03 10:26:04;;;;;;;1.47;0.80;;;20.90;57.40;;;;;;5131032;28;20410;-68
2024/01/03 10:28:30;;;;;;;2.80;1.13;;;20.90;57.40;;;;;;5130913;28;20188;-66
2024/01/03 10:30:57;;;;;;;2.63;0.90;;;20.90;57.40;;;;;;5131164;28;20493;-68
2024/01/03 10:33:23;;;;;;;1.97;0.80;;;20.90;57.40;;;;;;5130781;28;20172;-68
2024/01/03 10:35:48;;;;;;;1.73;0.90;;;20.90;57.40;;;;;;5130809;28;20402;-68
2024/01/03 10:38:16;;;;;;;1.27;0.97;;;20.90;57.50;;;;;;5130710;28;20692;-68
2024/01/03 10:40:41;;;;;;;2.10;0.90;;;20.90;57.50;;;;;;5130874;28;20164;-69
2024/01/03 10:43:11;;;;;;;2.03;0.80;;;20.90;57.40;;;;;;5130706;28;20405;-68
2024/01/03 10:45:36;;;;;;;4.60;1.00;;;20.90;57.50;;;;;;5130727;28;20248;-68
2024/01/03 10:48:03;;;;;;;1.93;1.10;;;20.90;57.40;;;;;;5130723;28;21044;-68
2024/01/03 10:50:29;;;;;;;1.40;0.80;;;20.90;57.40;;;;;;5130704;28;20657;-68
2024/01/03 10:52:58;;;;;;;2.60;0.83;;;20.90;57.40;;;;;;5130674;28;20409;-69
2024/01/03 10:55:42;;;;;;;1.23;0.93;;;20.90;57.50;;;;;;5112240;28;20440;-68
2024/01/03 10:58:13;;;;;;;2.23;1.10;;;20.90;57.40;;;;;;5112111;28;20445;-69
2024/01/03 11:01:18;;;;;;;2.60;1.33;;;20.90;57.50;;;;;;5111885;28;20398;-67
2024/01/03 11:04:16;;;;;;;1.30;0.70;;;20.90;57.50;;;;;;5112087;28;20405;-69
2024/01/03 11:07:11;;;;;;;2.63;1.03;;;20.90;57.50;;;;;;5112085;28;20402;-68
2024/01/03 11:09:37;;;;;;;3.17;1.07;;;20.90;57.60;;;;;;5115407;28;20402;-68
2024/01/03 11:12:10;;;;;;;1.10;0.80;;;20.90;57.60;;;;;;5130497;28;20433;-69
2024/01/03 11:14:37;;;;;;;1.23;0.80;;;20.80;57.50;;;;;;5130596;28;20156;-68
2024/01/03 11:17:03;;;;;;;1.10;0.87;;;20.90;57.70;;;;;;5130293;28;20448;-68
2024/01/03 11:19:30;;;;;;;3.30;1.37;;;20.90;57.60;;;;;;5130289;28;20484;-68
2024/01/03 11:21:57;;;;;;;1.67;0.90;;;20.90;57.60;;;;;;5130297;28;20402;-68
2024/01/03 11:24:30;;;;;;;1.40;0.80;;;20.90;57.60;;;;;;5111651;28;20390;-65
2024/01/03 11:26:56;;;;;;;2.40;1.07;;;20.90;57.60;;;;;;5130485;28;20413;-69
2024/01/03 11:29:55;;;;;;;3.10;0.90;;;20.90;57.70;;;;;;5130569;27;20666;-68
2024/01/03 11:32:35;;;;;;;1.30;1.20;;;20.90;57.70;;;;;;5133549;27;20414;-69
2024/01/03 11:35:01;;;;;;;1.60;0.90;;;20.90;57.70;;;;;;5134026;27;20405;-68
2024/01/03 11:37:26;;;;;;;2.50;0.90;;;20.90;57.70;;;;;;5115550;27;20517;-68
2024/01/03 11:39:56;;;;;;;3.10;0.93;;;20.90;58.30;;;;;;5114380;27;20477;-69
2024/01/03 11:42:29;;;;;;;2.10;0.80;;;20.90;57.70;;;;;;5134356;27;20202;-73
2024/01/03 11:45:04;;;;;;;2.00;1.07;;;20.90;57.70;;;;;;5118337;27;20398;-70
2024/01/03 11:47:32;;;;;;;2.47;0.87;;;20.90;57.70;;;;;;5117753;27;20421;-69
2024/01/03 11:49:58;;;;;;;1.10;1.00;;;20.90;57.70;;;;;;5118071;27;20410;-71
2024/01/03 11:52:25;;;;;;;1.70;0.90;;;20.90;57.70;;;;;;5136853;27;20968;-70
2024/01/03 11:54:51;;;;;;;1.63;0.80;;;20.90;57.70;;;;;;5136794;27;20776;-70
2024/01/03 11:57:23;;;;;;;2.40;1.10;;;20.90;57.70;;;;;;5118659;27;20414;-70
2024/01/03 11:59:58;;;;;;;1.43;0.83;;;20.90;57.70;;;;;;5116768;27;20506;-70
2024/01/03 12:02:24;;;;;;;1.63;0.97;;;20.90;57.70;;;;;;5115613;27;20408;-70
2024/01/03 12:05:02;;;;;;;1.57;0.87;;;20.90;57.70;;;;;;5116319;27;20406;-73
2024/01/03 12:07:30;;;;;;;1.10;0.80;;;20.90;57.70;;;;;;5116745;27;20307;-72
2024/01/03 12:09:56;;;;;;;2.40;0.90;;;20.90;57.70;;;;;;5117860;27;20413;-69
2024/01/03 12:12:23;;;;;;;1.97;1.00;;;20.90;57.70;;;;;;5136971;27;20421;-70
2024/01/03 12:14:51;;;;;;;4.10;1.10;;;20.90;57.70;;;;;;5109169;27;20874;-70
2024/01/03 12:17:26;;;;;;;6.60;1.30;;;20.90;57.70;;;;;;5136021;27;20446;-73
2024/01/03 12:19:52;;;;;;;2.20;1.00;;;20.90;57.80;;;;;;5116349;27;20458;-69
2024/01/03 12:22:24;;;;;;;2.03;0.73;;;21.00;58.10;;;;;;5135543;27;20754;-73
2024/01/03 12:24:50;;;;;;;1.53;0.80;;;21.00;57.90;;;;;;5114711;27;20409;-69
2024/01/03 12:27:25;;;;;;;1.33;0.80;;;20.90;57.70;;;;;;5114690;27;20944;-68
2024/01/03 12:29:51;;;;;;;2.23;0.93;;;20.90;57.80;;;;;;5114640;27;20405;-68
2024/01/03 12:32:19;;;;;;;2.00;0.93;;;20.90;57.70;;;;;;5133247;27;20769;-69
2024/01/03 12:34:46;;;;;;;3.03;1.00;;;20.90;57.70;;;;;;5114234;27;20180;-68
2024/01/03 12:37:15;;;;;;;1.70;0.80;;;20.90;57.80;;;;;;5114227;27;20418;-69
2024/01/03 12:39:42;;;;;;;2.83;1.13;;;21.00;57.90;;;;;;5113601;27;20456;-68
2024/01/03 12:42:09;;;;;;;1.40;0.93;;;20.90;57.80;;;;;;5114147;27;20462;-69
2024/01/03 12:44:39;;;;;;;1.83;1.03;;;21.00;57.80;;;;;;5114220;27;20420;-68
2024/01/03 12:47:09;;;;;;;1.73;0.83;;;20.90;57.70;;;;;;5132869;27;20412;-68